createdAt,value
2023-03-15T00:00:40.894Z,97355.44
2023-03-15T00:04:02.110Z,97357.74
2023-03-15T00:07:19.151Z,97376.67
2023-03-15T00:10:35.764Z,97379.78
2023-03-15T00:13:52.305Z,97403.45
2023-03-15T00:17:08.679Z,97423.67
2023-03-15T00:20:25.556Z,97434.69
2023-03-15T00:23:42.110Z,97443.49
2023-03-15T00:26:58.446Z,97460.81
2023-03-15T00:30:17.236Z,97489.94
2023-03-15T00:33:35.290Z,97497.47
2023-03-15T00:36:53.327Z,97508.45
2023-03-15T00:40:09.795Z,97519.81
2023-03-15T00:43:25.987Z,97546.21
2023-03-15T00:46:43.941Z,97553.41
2023-03-15T00:50:00.748Z,97561.69
2023-03-15T00:53:16.948Z,97572.79
2023-03-15T00:56:35.247Z,97583.70
2023-03-15T00:59:53.331Z,97588.95
2023-03-15T01:03:09.528Z,97606.06
2023-03-15T01:06:28.788Z,97613.34
2023-03-15T01:09:48.489Z,97624.70
2023-03-15T01:13:04.686Z,97654.61
2023-03-15T01:16:22.607Z,97660.38
2023-03-15T01:19:39.306Z,97657.05
2023-03-15T01:22:55.779Z,97657.25
2023-03-15T01:26:13.986Z,97668.48
2023-03-15T01:29:30.069Z,97674.41
2023-03-15T01:32:46.962Z,97684.22
2023-03-15T01:36:11.706Z,97697.73
2023-03-15T01:39:30.599Z,97716.83
2023-03-15T01:42:58.797Z,97732.97
2023-03-15T01:46:34.242Z,97725.25
2023-03-15T01:50:07.438Z,97734.06
2023-03-15T01:53:23.768Z,97730.81
2023-03-15T01:56:43.181Z,97740.63
2023-03-15T02:00:05.677Z,97747.65
2023-03-15T02:03:31.226Z,97751.74
2023-03-15T02:06:48.064Z,97748.17
2023-03-15T02:10:09.798Z,97782.28
2023-03-15T02:13:29.363Z,97791.56
2023-03-15T02:16:47.673Z,97804.07
2023-03-15T02:20:10.361Z,97809.29
2023-03-15T02:23:28.893Z,97821.45
2023-03-15T02:26:50.545Z,97825.77
2023-03-15T02:30:07.217Z,97817.98
2023-03-15T02:33:28.924Z,97821.51
2023-03-15T02:36:45.941Z,97823.95
2023-03-15T02:40:01.982Z,97831.55
2023-03-15T02:43:23.021Z,97829.77
2023-03-15T02:46:40.816Z,97828.23
2023-03-15T02:49:59.798Z,97834.30
2023-03-15T02:53:16.053Z,97852.56
2023-03-15T02:56:33.866Z,97858.02
2023-03-15T02:59:51.592Z,97876.92
2023-03-15T03:03:09.600Z,97878.39
2023-03-15T03:06:26.132Z,97892.20
2023-03-15T03:09:43.093Z,97899.92
2023-03-15T03:13:00.200Z,97904.88
2023-03-15T03:16:19.302Z,97908.21
2023-03-15T03:19:35.559Z,97902.96
2023-03-15T03:22:52.235Z,97904.29
2023-03-15T03:26:08.955Z,97903.63
2023-03-15T03:29:24.945Z,97914.13
2023-03-15T03:32:41.953Z,97924.82
2023-03-15T03:35:59.386Z,97912.66
2023-03-15T03:39:15.855Z,97900.34
2023-03-15T03:42:32.464Z,97910.87
2023-03-15T03:45:48.786Z,97920.72
2023-03-15T03:49:05.764Z,97932.88
2023-03-15T03:52:22.629Z,97924.81
2023-03-15T03:55:40.046Z,97934.67
2023-03-15T03:58:56.479Z,97935.67
2023-03-15T04:02:14.583Z,97939.60
2023-03-15T04:05:32.713Z,97945.03
2023-03-15T04:08:49.440Z,97955.55
2023-03-15T04:12:07.460Z,97967.68
2023-03-15T04:15:25.394Z,97971.77
2023-03-15T04:18:42.646Z,97973.91
2023-03-15T04:21:59.274Z,97961.76
2023-03-15T04:25:20.254Z,97968.49
2023-03-15T04:28:50.459Z,97972.95
2023-03-15T04:32:24.416Z,97978.02
2023-03-15T04:35:58.942Z,97987.06
2023-03-15T04:39:20.210Z,97983.92
2023-03-15T04:42:36.292Z,97979.47
2023-03-15T05:17:25.327Z,98042.47
2023-03-15T05:20:42.208Z,98044.30
2023-03-15T05:24:00.382Z,98044.48
2023-03-15T05:27:24.099Z,98052.67
2023-03-15T05:30:43.529Z,98059.06
2023-03-15T05:34:05.175Z,98066.57
2023-03-15T05:37:29.617Z,98080.41
2023-03-15T05:41:03.238Z,98080.06
2023-03-15T05:44:36.268Z,98091.72
2023-03-15T05:47:56.743Z,98101.38
2023-03-15T05:51:17.121Z,98106.67
2023-03-15T05:54:35.968Z,98109.25
2023-03-15T05:57:51.895Z,98111.92
2023-03-15T06:01:26.091Z,98122.56
2023-03-15T06:04:46.673Z,98130.09
2023-03-15T06:08:17.656Z,98134.20
2023-03-15T06:11:35.582Z,98134.53
2023-03-15T06:14:52.232Z,98146.98
2023-03-15T06:18:09.167Z,98151.94
2023-03-15T06:21:27.092Z,98153.09
2023-03-15T06:24:44.298Z,98166.56
2023-03-15T06:28:02.032Z,98180.38
2023-03-15T06:31:20.208Z,98176.38
2023-03-15T06:34:38.106Z,98186.44
2023-03-15T06:37:55.083Z,98180.38
2023-03-15T06:41:16.439Z,98188.07
2023-03-15T06:44:32.803Z,98191.51
2023-03-15T06:47:50.500Z,98203.50
2023-03-15T06:51:07.333Z,98191.51
2023-03-15T06:54:23.435Z,98203.83
2023-03-15T06:57:39.928Z,98202.69
2023-03-15T07:00:57.127Z,98209.10
2023-03-15T07:04:13.779Z,98213.22
2023-03-15T07:07:29.792Z,98217.03
2023-03-15T07:10:46.062Z,98226.22
2023-03-15T07:14:02.330Z,98216.95
2023-03-15T07:17:18.993Z,98217.77
2023-03-15T07:20:37.460Z,98219.26
2023-03-15T07:23:53.637Z,98228.22
2023-03-15T07:27:09.857Z,98235.23
2023-03-15T07:30:28.758Z,98237.02
2023-03-15T07:33:45.167Z,98239.80
2023-03-15T07:37:01.345Z,98238.39
2023-03-15T07:40:20.756Z,98246.16
2023-03-15T07:43:34.374Z,98237.60
2023-03-15T07:47:01.360Z,98242.39
2023-03-15T07:50:19.032Z,98246.34
2023-03-15T07:53:35.495Z,98251.58
2023-03-15T07:56:51.698Z,98258.55
2023-03-15T08:00:08.029Z,98266.45
2023-03-15T08:03:27.722Z,98277.64
2023-03-15T08:06:47.117Z,98275.98
2023-03-15T08:10:06.324Z,98281.08
2023-03-15T08:13:22.970Z,98287.85
2023-03-15T08:16:41.695Z,98299.97
2023-03-15T08:19:57.967Z,98296.72
2023-03-15T08:23:19.137Z,98292.44
2023-03-15T08:26:35.479Z,98295.73
2023-03-15T08:29:53.410Z,98301.48
2023-03-15T08:33:13.316Z,98298.72
2023-03-15T08:36:29.841Z,98292.31
2023-03-15T08:39:47.904Z,98299.69
2023-03-15T08:43:05.091Z,98305.80
2023-03-15T08:46:22.728Z,98303.64
2023-03-15T08:49:39.442Z,98305.30
2023-03-15T08:52:56.418Z,98304.50
2023-03-15T08:56:13.391Z,98312.09
2023-03-15T08:59:32.164Z,98313.91
2023-03-15T09:02:49.465Z,98321.20
2023-03-15T09:06:08.082Z,98321.54
2023-03-15T09:09:24.371Z,98320.92
2023-03-15T09:12:40.548Z,98332.46
2023-03-15T09:15:59.426Z,98341.02
2023-03-15T09:19:15.653Z,98340.85
2023-03-15T09:22:38.919Z,98351.39
2023-03-15T09:25:50.415Z,98342.19
2023-03-15T09:29:06.542Z,98354.66
2023-03-15T09:32:25.970Z,98353.17
2023-03-15T09:35:42.337Z,98348.41
2023-03-15T09:38:58.530Z,98359.28
2023-03-15T09:42:19.804Z,98354.35
2023-03-15T09:45:48.967Z,98355.36
2023-03-15T09:49:11.273Z,98353.66
2023-03-15T09:52:44.688Z,98356.14
2023-03-15T09:56:01.753Z,98368.72
2023-03-15T09:59:23.609Z,98362.63
2023-03-15T10:02:40.474Z,98370.05
2023-03-15T10:06:01.855Z,98376.99
2023-03-15T10:09:27.355Z,98372.23
2023-03-15T10:12:46.039Z,98382.39
2023-03-15T10:16:15.768Z,98381.91
2023-03-15T10:19:44.074Z,98385.52
2023-03-15T10:23:08.020Z,98384.25
2023-03-15T10:26:28.919Z,98386.72
2023-03-15T10:29:53.058Z,98389.85
2023-03-15T10:33:19.024Z,98402.20
2023-03-15T10:36:36.864Z,98407.00
2023-03-15T10:39:58.885Z,98403.69
2023-03-15T10:43:27.227Z,98417.36
2023-03-15T10:46:43.751Z,98412.40
2023-03-15T10:50:05.035Z,98417.52
2023-03-15T10:53:26.403Z,98411.62
2023-03-15T10:56:50.487Z,98403.55
2023-03-15T11:00:14.456Z,98408.88
2023-03-15T11:03:32.859Z,98408.03
2023-03-15T11:06:54.874Z,98406.72
2023-03-15T11:10:18.804Z,98414.31
2023-03-15T11:13:38.251Z,98417.92
2023-03-15T11:16:58.433Z,98414.97
2023-03-15T11:20:31.443Z,98415.65
2023-03-15T11:23:52.259Z,98413.69
2023-03-15T11:27:15.804Z,98408.39
2023-03-15T11:30:36.004Z,98408.55
2023-03-15T11:34:00.569Z,98407.55
2023-03-15T11:37:25.555Z,98408.73
2023-03-15T11:40:45.995Z,98411.34
2023-03-15T11:44:09.755Z,98422.52
2023-03-15T11:47:34.187Z,98423.66
2023-03-15T11:50:50.716Z,98428.14
2023-03-15T11:54:19.010Z,98429.65
2023-03-15T11:57:54.183Z,98423.20
2023-03-15T12:01:15.841Z,98425.84
2023-03-15T12:05:15.921Z,98432.45
2023-03-15T12:08:46.266Z,98433.77
2023-03-15T12:12:07.124Z,98429.34
2023-03-15T12:15:49.810Z,98430.31
2023-03-15T12:19:08.114Z,98428.17
2023-03-15T12:22:26.649Z,98431.65
2023-03-15T12:25:54.827Z,98433.78
2023-03-15T12:29:20.307Z,98426.55
2023-03-15T12:32:39.723Z,98424.56
2023-03-15T12:35:54.077Z,98428.50
2023-03-15T12:39:27.015Z,98429.67
2023-03-15T12:43:09.482Z,98421.28
2023-03-15T12:47:03.928Z,98431.48
2023-03-15T12:50:55.290Z,98433.77
2023-03-15T12:54:14.876Z,98435.59
2023-03-15T12:57:35.130Z,98434.77
2023-03-15T13:00:53.427Z,98433.78
2023-03-15T13:04:10.961Z,98432.94
2023-03-15T13:07:50.761Z,98436.56
2023-03-15T13:11:12.093Z,98443.34
2023-03-15T13:14:46.398Z,98449.59
2023-03-15T13:18:07.441Z,98438.23
2023-03-15T13:21:29.694Z,98437.24
2023-03-15T13:24:55.262Z,98436.73
2023-03-15T13:28:19.842Z,98438.56
2023-03-15T13:31:37.897Z,98440.36
2023-03-15T13:34:56.653Z,98446.78
2023-03-15T13:38:30.493Z,98455.19
2023-03-15T13:41:48.398Z,98458.31
2023-03-15T13:45:25.401Z,98460.47
2023-03-15T13:48:46.303Z,98468.71
2023-03-15T13:52:03.016Z,98469.70
2023-03-15T13:55:27.964Z,98480.89
2023-03-15T13:58:46.740Z,98482.88
2023-03-15T14:02:04.144Z,98491.42
2023-03-15T14:05:25.720Z,98495.70
2023-03-15T14:08:43.992Z,98493.54
2023-03-15T14:12:14.743Z,98498.16
2023-03-15T14:15:36.364Z,98501.47
2023-03-15T14:18:53.959Z,98503.93
2023-03-15T14:22:20.215Z,98499.33
2023-03-15T14:25:41.757Z,98510.20
2023-03-15T14:29:05.768Z,98503.63
2023-03-15T14:32:34.829Z,98510.02
2023-03-15T14:35:54.843Z,98506.73
2023-03-15T14:39:13.020Z,98499.64
2023-03-15T14:42:29.907Z,98502.28
2023-03-15T14:45:51.218Z,98508.70
2023-03-15T14:49:10.307Z,98505.39
2023-03-15T14:52:26.990Z,98511.47
2023-03-15T14:55:45.205Z,98513.47
2023-03-15T14:59:03.369Z,98519.20
2023-03-15T15:02:25.808Z,98518.56
2023-03-15T15:05:44.101Z,98533.53
2023-03-15T15:09:03.329Z,98542.57
2023-03-15T15:12:21.629Z,98550.98
2023-03-15T15:15:54.026Z,98550.27
2023-03-15T15:18:55.937Z,98545.16
2023-03-15T15:22:14.724Z,98550.72
2023-03-15T15:25:32.232Z,98549.75
2023-03-15T15:28:48.464Z,98557.13
2023-03-15T15:32:05.782Z,98551.87
2023-03-15T15:35:24.514Z,98559.60
2023-03-15T15:38:42.751Z,98554.50
2023-03-15T15:41:59.238Z,98554.16
2023-03-15T15:45:21.411Z,98562.31
2023-03-15T15:48:37.730Z,98560.69
2023-03-15T15:51:55.638Z,98561.67
2023-03-15T15:55:14.706Z,98575.30
2023-03-15T15:58:30.995Z,98570.66
2023-03-15T16:01:59.661Z,98579.60
2023-03-15T16:05:05.761Z,98571.90
2023-03-15T16:08:28.219Z,98583.24
2023-03-15T16:11:45.558Z,98583.05
2023-03-15T16:15:01.973Z,98585.48
2023-03-15T16:18:22.260Z,98587.89
2023-03-15T16:21:44.806Z,98581.29
2023-03-15T16:25:05.070Z,98585.34
2023-03-15T16:28:21.352Z,98590.24
2023-03-15T16:31:38.564Z,98590.92
2023-03-15T16:35:02.392Z,98601.38
2023-03-15T16:38:27.175Z,98607.64
2023-03-15T16:41:43.655Z,98608.13
2023-03-15T16:45:00.380Z,98612.05
2023-03-15T16:48:17.524Z,98615.52
2023-03-15T16:51:37.366Z,98628.28
2023-03-15T16:54:54.398Z,98626.84
2023-03-15T16:58:17.502Z,98629.11
2023-03-15T17:01:34.777Z,98637.52
2023-03-15T17:04:51.866Z,98657.49
2023-03-15T17:08:08.829Z,98663.16
2023-03-15T17:11:30.073Z,98663.75
2023-03-15T17:14:46.377Z,98653.58
2023-03-15T17:18:03.646Z,98665.66
2023-03-15T17:21:22.687Z,98665.32
2023-03-15T17:24:39.783Z,98659.45
2023-03-15T17:27:57.175Z,98657.90
2023-03-15T17:31:25.299Z,98659.84
2023-03-15T17:34:35.057Z,98668.73
2023-03-15T17:37:52.365Z,98678.45
2023-03-15T17:41:12.753Z,98684.52
2023-03-15T17:44:29.196Z,98686.09
2023-03-15T17:47:45.439Z,98686.40
2023-03-15T17:51:01.735Z,98698.14
2023-03-15T17:54:25.863Z,98703.23
2023-03-15T17:57:52.341Z,98701.75
2023-03-15T18:01:03.026Z,98695.14
2023-03-15T18:04:22.953Z,98694.45
2023-03-15T18:07:43.506Z,98687.83
2023-03-15T18:11:00.695Z,98699.05
2023-03-15T18:14:21.994Z,98689.78
2023-03-15T18:17:39.050Z,98690.64
2023-03-15T18:20:56.351Z,98694.92
2023-03-15T18:24:14.156Z,98691.60
2023-03-15T18:27:31.284Z,98688.98
2023-03-15T18:30:49.369Z,98689.80
2023-03-15T18:34:07.553Z,98681.41
2023-03-15T18:37:23.676Z,98680.72
2023-03-15T18:40:42.926Z,98677.55
2023-03-15T18:44:00.222Z,98687.07
2023-03-15T18:47:17.083Z,98687.63
2023-03-15T18:50:34.262Z,98690.55
2023-03-15T18:53:53.419Z,98690.95
2023-03-15T18:57:09.554Z,98695.91
2023-03-15T19:00:32.323Z,98699.08
2023-03-15T19:03:49.133Z,98705.02
2023-03-15T19:07:05.896Z,98697.16
2023-03-15T19:10:25.622Z,98699.88
2023-03-15T19:13:44.369Z,98706.23
2023-03-15T19:17:00.851Z,98712.33
2023-03-15T19:20:24.451Z,98711.63
2023-03-15T19:23:40.958Z,98720.72
2023-03-15T19:26:57.638Z,98718.80
2023-03-15T19:30:20.018Z,98722.78
2023-03-15T19:33:36.486Z,98717.97
2023-03-15T19:36:53.005Z,98718.94
2023-03-15T19:40:11.744Z,98725.28
2023-03-15T19:43:28.016Z,98733.67
2023-03-15T19:46:46.277Z,98733.67
2023-03-15T19:50:02.864Z,98734.12
2023-03-15T19:53:24.452Z,98739.64
2023-03-15T19:56:41.174Z,98739.79
2023-03-15T19:59:57.463Z,98749.47
2023-03-15T20:03:14.048Z,98744.48
2023-03-15T20:06:30.768Z,98755.13
2023-03-15T20:09:47.783Z,98748.10
2023-03-15T20:13:06.938Z,98746.44
2023-03-15T20:16:23.303Z,98742.45
2023-03-15T20:19:41.414Z,98738.56
2023-03-15T20:22:59.575Z,98754.03
2023-03-15T20:26:21.633Z,98756.52
2023-03-15T20:29:39.425Z,98764.39
2023-03-15T20:32:55.967Z,98768.67
2023-03-15T20:36:13.911Z,98770.59
2023-03-15T20:39:30.757Z,98774.73
2023-03-15T20:42:47.898Z,98771.13
2023-03-15T20:46:07.234Z,98772.63
2023-03-15T20:49:24.468Z,98771.53
2023-03-15T20:52:41.810Z,98781.06
2023-03-15T20:55:57.967Z,98766.01
2023-03-15T20:59:15.041Z,98778.02
2023-03-15T21:02:31.350Z,98774.69
2023-03-15T21:05:50.827Z,98781.88
2023-03-15T21:09:07.555Z,98785.06
2023-03-15T21:12:23.981Z,98785.32
2023-03-15T21:15:40.234Z,98792.09
2023-03-15T21:18:57.476Z,98796.38
2023-03-15T21:22:13.917Z,98802.03
2023-03-15T21:25:29.991Z,98802.44
2023-03-15T21:28:48.386Z,98804.03
2023-03-15T21:32:05.270Z,98811.86
2023-03-15T21:35:22.984Z,98808.53
2023-03-15T21:38:40.805Z,98818.20
2023-03-15T21:41:56.909Z,98812.91
2023-03-15T21:45:15.312Z,98808.48
2023-03-15T21:48:31.413Z,98806.00
2023-03-15T21:51:47.887Z,98812.39
2023-03-15T21:55:05.657Z,98815.16
2023-03-15T21:58:21.961Z,98817.67
2023-03-15T22:01:38.353Z,98819.30
2023-03-15T22:04:54.526Z,98817.67
2023-03-15T22:08:10.879Z,98832.97
2023-03-15T22:11:27.616Z,98825.53
2023-03-15T22:14:45.883Z,98836.97
2023-03-15T22:18:03.022Z,98843.59
2023-03-15T22:21:19.067Z,98851.07
2023-03-15T22:24:35.266Z,98858.23
2023-03-15T22:27:51.928Z,98851.07
2023-03-15T22:31:08.005Z,98847.78
2023-03-15T22:34:26.007Z,98853.84
2023-03-15T22:37:42.101Z,98858.98
2023-03-15T22:41:07.230Z,98858.83
2023-03-15T22:44:23.378Z,98862.41
2023-03-15T22:47:39.501Z,98870.13
2023-03-15T22:51:02.520Z,98858.66
2023-03-15T22:54:19.122Z,98864.17
2023-03-15T22:57:35.330Z,98869.56
2023-03-15T23:00:51.485Z,98875.75
2023-03-15T23:04:07.571Z,98870.52
2023-03-15T23:07:23.777Z,98876.95
2023-03-15T23:10:40.276Z,98879.33
2023-03-15T23:13:57.443Z,98884.57
2023-03-15T23:17:13.888Z,98886.23
2023-03-15T23:20:31.137Z,98893.00
2023-03-15T23:23:48.284Z,98914.69
2023-03-15T23:27:04.426Z,98900.48
2023-03-15T23:30:23.002Z,98905.73
2023-03-15T23:33:40.354Z,98902.12
2023-03-15T23:36:56.484Z,98912.17
2023-03-15T23:40:17.642Z,98912.83
2023-03-15T23:43:34.253Z,98918.37
2023-03-15T23:46:50.591Z,98920.88
2023-03-15T23:50:07.377Z,98917.83
2023-03-15T23:53:23.481Z,98923.06
2023-03-15T23:56:39.644Z,98921.92
2023-03-15T23:59:55.882Z,98927.97
